createdAt,value
2023-03-15T00:01:23.315Z,20.67
2023-03-15T00:03:55.136Z,19.98
2023-03-15T00:06:24.780Z,20.89
2023-03-15T00:08:54.072Z,20.34
2023-03-15T00:11:23.591Z,19.33
2023-03-15T00:13:53.047Z,19.56
2023-03-15T00:16:37.826Z,19.26
2023-03-15T00:19:07.165Z,18.05
2023-03-15T00:21:36.984Z,19.04
2023-03-15T00:24:06.862Z,18.68
2023-03-15T00:26:36.387Z,18.30
2023-03-15T00:29:05.811Z,18.43
2023-03-15T00:31:37.238Z,19.46
2023-03-15T00:34:06.605Z,19.04
2023-03-15T00:36:36.334Z,18.77
2023-03-15T00:39:05.724Z,19.57
2023-03-15T00:41:35.793Z,18.51
2023-03-15T00:44:05.479Z,19.45
2023-03-15T00:46:36.680Z,19.67
2023-03-15T00:49:06.021Z,18.98
2023-03-15T00:51:37.560Z,19.73
2023-03-15T00:54:07.292Z,18.88
2023-03-15T00:56:37.907Z,18.13
2023-03-15T00:59:07.624Z,17.67
2023-03-15T01:01:41.310Z,18.25
2023-03-15T01:04:12.255Z,18.42
2023-03-15T01:06:43.266Z,18.02
2023-03-15T01:09:13.187Z,19.49
2023-03-15T01:11:42.924Z,19.69
2023-03-15T01:14:12.724Z,19.29
2023-03-15T01:16:44.103Z,18.64
2023-03-15T01:19:14.184Z,19.45
2023-03-15T01:21:44.232Z,18.65
2023-03-15T01:24:15.602Z,18.70
2023-03-15T01:26:45.482Z,19.44
2023-03-15T01:29:14.973Z,19.05
2023-03-15T01:31:46.378Z,19.79
2023-03-15T01:34:16.146Z,19.00
2023-03-15T01:36:45.843Z,19.95
2023-03-15T01:39:15.695Z,19.27
2023-03-15T01:41:47.580Z,18.74
2023-03-15T01:44:19.037Z,19.86
2023-03-15T01:46:51.931Z,20.56
2023-03-15T01:49:27.394Z,20.80
2023-03-15T01:52:02.469Z,21.50
2023-03-15T01:54:45.189Z,17.85
2023-03-15T01:57:19.167Z,18.51
2023-03-15T01:59:53.089Z,20.01
2023-03-15T02:02:26.478Z,19.19
2023-03-15T02:05:04.714Z,19.09
2023-03-15T02:07:34.931Z,20.09
2023-03-15T02:10:09.491Z,19.66
2023-03-15T02:12:45.570Z,20.75
2023-03-15T02:15:16.916Z,20.46
2023-03-15T02:17:49.751Z,21.46
2023-03-15T02:20:36.213Z,20.73
2023-03-15T02:23:09.622Z,18.98
2023-03-15T02:25:47.166Z,21.31
2023-03-15T02:28:20.081Z,20.72
2023-03-15T02:30:50.810Z,18.86
2023-03-15T02:33:25.431Z,20.51
2023-03-15T02:35:55.702Z,20.38
2023-03-15T02:38:25.442Z,21.29
2023-03-15T02:40:55.796Z,20.41
2023-03-15T02:43:30.851Z,21.31
2023-03-15T02:46:01.443Z,19.80
2023-03-15T02:48:33.106Z,19.14
2023-03-15T02:51:03.373Z,20.28
2023-03-15T02:53:33.560Z,20.24
2023-03-15T02:56:03.716Z,19.88
2023-03-15T02:58:34.917Z,21.74
2023-03-15T03:01:05.116Z,20.61
2023-03-15T03:03:34.859Z,21.58
2023-03-15T03:06:04.368Z,21.80
2023-03-15T03:08:34.782Z,19.97
2023-03-15T03:11:04.912Z,21.51
2023-03-15T03:13:36.014Z,18.94
2023-03-15T03:16:08.017Z,20.17
2023-03-15T03:18:37.983Z,20.86
2023-03-15T03:21:09.627Z,20.31
2023-03-15T03:23:39.346Z,19.55
2023-03-15T03:26:16.990Z,20.51
2023-03-15T03:28:50.314Z,19.89
2023-03-15T03:36:14.593Z,21.84
2023-03-15T03:38:46.439Z,22.26
2023-03-15T03:41:17.094Z,22.18
2023-03-15T03:43:46.549Z,22.16
2023-03-15T03:46:17.880Z,21.98
2023-03-15T03:48:51.763Z,21.24
2023-03-15T03:51:21.706Z,20.28
2023-03-15T03:53:51.250Z,19.11
2023-03-15T03:56:20.965Z,19.14
2023-03-15T03:58:51.182Z,20.78
2023-03-15T04:01:27.648Z,19.74
2023-03-15T04:03:57.782Z,21.58
2023-03-15T04:06:27.653Z,21.25
2023-03-15T04:08:57.222Z,21.40
2023-03-15T04:11:43.816Z,20.03
2023-03-15T04:14:14.158Z,21.48
2023-03-15T04:16:47.196Z,20.70
2023-03-15T04:19:19.059Z,21.76
2023-03-15T04:21:48.671Z,21.01
2023-03-15T04:24:29.998Z,20.43
2023-03-15T04:27:14.741Z,20.05
2023-03-15T04:30:14.169Z,20.37
2023-03-15T04:32:47.972Z,20.48
2023-03-15T04:35:30.814Z,20.98
2023-03-15T04:38:11.203Z,20.05
2023-03-15T04:40:59.151Z,20.20
2023-03-15T04:43:39.946Z,21.65
2023-03-15T04:46:25.235Z,21.58
2023-03-15T04:49:15.285Z,20.99
2023-03-15T04:52:10.920Z,21.68
2023-03-15T04:55:05.211Z,21.41
2023-03-15T04:58:00.698Z,19.92
2023-03-15T05:00:46.748Z,19.54
2023-03-15T05:03:32.279Z,19.10
2023-03-15T05:06:22.295Z,19.25
2023-03-15T05:08:51.661Z,20.90
2023-03-15T05:11:24.848Z,19.51
2023-03-15T05:14:13.102Z,20.10
2023-03-15T05:17:09.017Z,20.65
2023-03-15T05:19:56.063Z,21.20
2023-03-15T05:22:40.218Z,20.55
2023-03-15T05:25:28.353Z,21.04
2023-03-15T05:28:11.246Z,20.46
2023-03-15T05:30:49.561Z,21.80
2023-03-15T05:33:28.175Z,21.92
2023-03-15T05:36:15.555Z,22.09
2023-03-15T05:39:19.275Z,22.23
2023-03-15T05:42:07.243Z,22.47
2023-03-15T05:45:00.509Z,20.72
2023-03-15T05:47:48.756Z,21.04
2023-03-15T05:50:37.092Z,20.63
2023-03-15T05:53:19.192Z,21.24
2023-03-15T05:56:28.731Z,21.98
2023-03-15T05:59:18.512Z,20.19
2023-03-15T06:02:14.549Z,21.15
2023-03-15T06:04:52.996Z,19.54
2023-03-15T06:07:27.081Z,21.02
2023-03-15T06:09:56.691Z,20.64
2023-03-15T06:12:28.000Z,20.70
2023-03-15T06:14:57.656Z,21.03
2023-03-15T06:17:27.858Z,21.23
2023-03-15T06:19:57.278Z,20.97
2023-03-15T06:22:26.954Z,21.96
2023-03-15T06:25:01.024Z,21.28
2023-03-15T06:27:33.242Z,20.45
2023-03-15T06:30:03.481Z,20.60
2023-03-15T06:32:33.617Z,20.87
2023-03-15T06:35:05.039Z,19.91
2023-03-15T06:37:36.219Z,20.40
2023-03-15T06:40:08.879Z,21.51
2023-03-15T06:42:41.762Z,19.14
2023-03-15T06:45:15.286Z,22.22
2023-03-15T06:47:45.175Z,18.73
2023-03-15T06:50:15.284Z,18.89
2023-03-15T06:52:44.997Z,19.23
2023-03-15T06:55:18.309Z,18.61
2023-03-15T06:57:50.085Z,19.86
2023-03-15T07:00:20.154Z,20.61
2023-03-15T07:02:50.113Z,19.47
2023-03-15T07:05:19.464Z,19.49
2023-03-15T07:07:49.104Z,21.66
2023-03-15T07:10:18.831Z,21.67
2023-03-15T07:12:49.738Z,20.30
2023-03-15T07:15:19.448Z,21.42
2023-03-15T07:17:49.192Z,20.99
2023-03-15T07:20:18.793Z,20.79
2023-03-15T07:22:49.850Z,18.72
2023-03-15T07:25:24.188Z,19.42
2023-03-15T07:27:55.912Z,19.39
2023-03-15T07:30:25.265Z,21.20
2023-03-15T07:32:55.192Z,20.28
2023-03-15T07:35:24.760Z,20.03
2023-03-15T07:37:54.534Z,19.55
2023-03-15T07:40:26.429Z,20.37
2023-03-15T07:42:57.569Z,21.19
2023-03-15T07:45:26.905Z,19.87
2023-03-15T07:47:56.701Z,20.23
2023-03-15T07:50:27.537Z,20.80
2023-03-15T07:52:57.881Z,20.03
2023-03-15T07:55:27.717Z,21.33
2023-03-15T07:57:59.159Z,21.85
2023-03-15T08:00:28.992Z,21.79
2023-03-15T08:02:58.941Z,21.62
2023-03-15T08:05:29.270Z,20.82
2023-03-15T08:07:58.913Z,24.09
2023-03-15T08:10:28.539Z,22.34
2023-03-15T08:12:59.558Z,22.87
2023-03-15T08:15:29.045Z,22.05
2023-03-15T08:17:59.764Z,21.48
2023-03-15T08:20:29.905Z,21.26
2023-03-15T08:22:59.927Z,21.84
2023-03-15T08:25:30.158Z,21.78
2023-03-15T08:28:02.247Z,22.10
2023-03-15T08:30:32.046Z,21.21
2023-03-15T08:33:01.701Z,22.64
2023-03-15T08:35:33.118Z,22.04
2023-03-15T08:38:03.818Z,21.22
2023-03-15T08:40:33.573Z,19.91
2023-03-15T08:43:04.723Z,20.09
2023-03-15T08:45:51.034Z,20.26
2023-03-15T08:48:23.744Z,22.14
2023-03-15T08:50:53.174Z,22.83
2023-03-15T08:53:22.861Z,21.11
2023-03-15T08:55:52.223Z,21.63
2023-03-15T08:58:23.177Z,22.11
2023-03-15T09:00:53.122Z,24.61
2023-03-15T09:03:23.961Z,24.36
2023-03-15T09:05:58.278Z,21.83
2023-03-15T09:08:28.428Z,23.14
2023-03-15T09:10:58.828Z,23.77
2023-03-15T09:13:30.623Z,22.99
2023-03-15T09:16:00.062Z,21.89
2023-03-15T09:18:29.638Z,21.40
2023-03-15T09:20:58.943Z,22.24
2023-03-15T09:23:28.776Z,26.00
2023-03-15T09:25:58.227Z,24.98
2023-03-15T09:28:29.539Z,26.47
2023-03-15T09:31:00.137Z,26.75
2023-03-15T09:33:29.887Z,25.40
2023-03-15T09:35:59.427Z,23.35
2023-03-15T09:38:29.381Z,23.22
2023-03-15T09:41:00.390Z,23.83
2023-03-15T09:44:02.712Z,24.20
2023-03-15T09:46:35.269Z,21.62
2023-03-15T09:49:13.954Z,23.28
2023-03-15T09:51:48.651Z,24.47
2023-03-15T09:54:23.859Z,25.16
2023-03-15T09:56:58.948Z,25.80
2023-03-15T09:59:34.348Z,25.98
2023-03-15T10:02:15.810Z,24.89
2023-03-15T10:04:48.298Z,24.70
2023-03-15T10:07:19.226Z,24.33
2023-03-15T10:09:49.185Z,23.73
2023-03-15T10:12:25.544Z,23.38
2023-03-15T10:15:12.084Z,23.60
2023-03-15T10:17:50.280Z,27.59
2023-03-15T10:20:23.840Z,26.77
2023-03-15T10:23:01.453Z,28.12
2023-03-15T10:25:32.446Z,26.50
2023-03-15T10:28:06.722Z,25.17
2023-03-15T10:30:39.491Z,23.28
2023-03-15T10:33:18.424Z,22.27
2023-03-15T10:35:48.502Z,21.83
2023-03-15T10:38:20.529Z,23.97
2023-03-15T10:40:52.412Z,22.98
2023-03-15T10:43:24.104Z,24.36
2023-03-15T10:46:06.032Z,25.16
2023-03-15T10:48:37.772Z,22.41
2023-03-15T10:51:15.873Z,22.42
2023-03-15T10:53:56.317Z,22.14
2023-03-15T10:56:28.756Z,21.74
2023-03-15T10:59:11.901Z,22.46
2023-03-15T11:01:44.611Z,22.40
2023-03-15T11:04:19.067Z,21.94
2023-03-15T11:06:50.976Z,22.03
2023-03-15T11:09:23.665Z,20.56
2023-03-15T11:12:00.815Z,21.32
2023-03-15T11:14:36.052Z,20.44
2023-03-15T11:17:10.199Z,21.85
2023-03-15T11:19:44.000Z,20.90
2023-03-15T11:22:16.326Z,21.94
2023-03-15T11:24:45.626Z,24.46
2023-03-15T11:27:18.537Z,30.24
2023-03-15T11:29:52.713Z,31.45
2023-03-15T11:32:26.319Z,31.49
2023-03-15T11:35:01.196Z,34.23
2023-03-15T11:37:37.496Z,33.76
2023-03-15T11:40:17.278Z,27.43
2023-03-15T11:42:54.747Z,28.32
2023-03-15T11:45:33.472Z,31.64
2023-03-15T11:48:30.033Z,34.09
2023-03-15T11:51:00.783Z,34.63
2023-03-15T11:53:35.294Z,33.75
2023-03-15T11:56:23.029Z,36.59
2023-03-15T11:59:06.513Z,37.28
2023-03-15T12:01:36.521Z,29.84
2023-03-15T12:04:38.285Z,29.22
2023-03-15T12:07:24.736Z,29.60
2023-03-15T12:09:56.533Z,35.05
2023-03-15T12:12:41.611Z,32.85
2023-03-15T12:15:46.013Z,33.36
2023-03-15T12:18:26.622Z,35.29
2023-03-15T12:21:20.668Z,32.36
2023-03-15T12:23:59.700Z,33.16
2023-03-15T12:26:39.355Z,34.62
2023-03-15T12:29:17.038Z,34.35
2023-03-15T12:31:53.798Z,34.60
2023-03-15T12:34:37.281Z,35.90
2023-03-15T12:37:13.963Z,36.57
2023-03-15T12:39:47.190Z,35.64
2023-03-15T12:42:54.313Z,36.75
2023-03-15T12:45:46.570Z,30.78
2023-03-15T12:48:30.422Z,31.73
2023-03-15T12:51:16.161Z,33.24
2023-03-15T12:53:52.230Z,31.10
2023-03-15T12:56:43.208Z,31.04
2023-03-15T12:59:24.972Z,33.25
2023-03-15T13:01:54.997Z,35.83
2023-03-15T13:04:25.450Z,36.95
2023-03-15T13:07:13.908Z,30.57
2023-03-15T13:10:11.824Z,28.94
2023-03-15T13:12:49.256Z,26.57
2023-03-15T13:15:25.188Z,26.04
2023-03-15T13:17:59.753Z,26.07
2023-03-15T13:20:42.588Z,25.79
2023-03-15T13:23:28.549Z,29.15
2023-03-15T13:26:16.223Z,35.47
2023-03-15T13:28:50.860Z,37.08
2023-03-15T13:31:25.022Z,37.21
2023-03-15T13:33:57.582Z,35.40
2023-03-15T13:36:30.301Z,33.62
2023-03-15T13:38:59.709Z,27.74
2023-03-15T13:41:32.279Z,27.17
2023-03-15T13:44:06.814Z,26.00
2023-03-15T13:46:36.717Z,24.53
2023-03-15T13:49:06.715Z,23.00
2023-03-15T13:51:39.002Z,22.18
2023-03-15T13:54:12.837Z,21.96
2023-03-15T13:56:55.803Z,24.61
2023-03-15T13:59:28.799Z,23.69
2023-03-15T14:01:59.489Z,25.65
2023-03-15T14:04:29.142Z,25.52
2023-03-15T14:07:15.042Z,26.54
2023-03-15T14:09:44.302Z,26.04
2023-03-15T14:12:23.222Z,28.86
2023-03-15T14:14:54.928Z,29.39
2023-03-15T14:17:29.891Z,27.87
2023-03-15T14:20:18.525Z,30.70
2023-03-15T14:22:48.150Z,28.90
2023-03-15T14:25:22.729Z,32.13
2023-03-15T14:27:53.668Z,31.23
2023-03-15T14:30:25.732Z,30.25
2023-03-15T14:32:58.944Z,31.32
2023-03-15T14:35:32.781Z,30.82
2023-03-15T14:38:09.837Z,33.46
2023-03-15T14:40:40.350Z,34.10
2023-03-15T14:43:12.243Z,35.71
2023-03-15T14:45:44.483Z,35.80
2023-03-15T14:48:17.061Z,32.84
2023-03-15T14:50:47.205Z,28.98
2023-03-15T14:53:19.297Z,29.47
2023-03-15T14:55:48.852Z,28.32
2023-03-15T14:58:21.985Z,28.95
2023-03-15T15:00:53.894Z,30.82
2023-03-15T15:03:31.389Z,29.16
2023-03-15T15:06:01.612Z,27.13
2023-03-15T15:08:32.430Z,28.62
2023-03-15T15:11:02.861Z,28.63
2023-03-15T15:13:34.008Z,29.68
2023-03-15T15:16:04.917Z,30.04
2023-03-15T15:18:36.730Z,28.55
2023-03-15T15:21:13.930Z,27.99
2023-03-15T15:23:57.270Z,27.18
2023-03-15T15:26:29.895Z,26.75
2023-03-15T15:29:01.786Z,26.81
2023-03-15T15:31:34.479Z,27.63
2023-03-15T15:34:04.545Z,28.17
2023-03-15T15:36:36.523Z,29.29
2023-03-15T15:39:14.934Z,28.51
2023-03-15T15:41:44.371Z,26.97
2023-03-15T15:44:18.029Z,25.84
2023-03-15T15:46:47.734Z,23.84
2023-03-15T15:49:18.346Z,24.93
2023-03-15T15:51:49.944Z,24.04
2023-03-15T15:54:22.993Z,22.14
2023-03-15T15:56:55.225Z,20.34
2023-03-15T15:59:27.281Z,20.05
2023-03-15T16:02:01.614Z,20.00
2023-03-15T16:04:33.022Z,19.92
2023-03-15T16:07:04.543Z,19.66
2023-03-15T16:09:36.396Z,20.45
2023-03-15T16:12:12.797Z,20.05
2023-03-15T16:14:44.185Z,20.65
2023-03-15T16:17:16.023Z,21.24
2023-03-15T16:19:45.884Z,20.90
2023-03-15T16:22:15.687Z,21.09
2023-03-15T16:24:48.375Z,20.76
2023-03-15T16:27:19.847Z,20.39
2023-03-15T16:29:53.148Z,21.47
2023-03-15T16:32:41.091Z,19.97
2023-03-15T16:35:15.903Z,21.28
2023-03-15T16:37:46.943Z,20.96
2023-03-15T16:40:23.925Z,20.90
2023-03-15T16:42:55.897Z,22.40
2023-03-15T16:45:27.874Z,21.89
2023-03-15T16:47:59.412Z,22.22
2023-03-15T16:50:29.256Z,21.93
2023-03-15T16:53:01.858Z,22.07
2023-03-15T16:55:34.197Z,22.12
2023-03-15T16:58:05.778Z,22.25
2023-03-15T17:00:37.161Z,21.75
2023-03-15T17:03:07.969Z,21.86
2023-03-15T17:05:37.621Z,22.22
2023-03-15T17:08:07.689Z,22.27
2023-03-15T17:10:41.567Z,21.88
2023-03-15T17:13:14.519Z,22.06
2023-03-15T17:15:45.625Z,21.22
2023-03-15T17:18:19.104Z,21.30
2023-03-15T17:20:50.854Z,21.06
2023-03-15T17:23:21.443Z,19.09
2023-03-15T17:25:51.358Z,20.20
2023-03-15T17:28:20.968Z,20.82
2023-03-15T17:30:59.635Z,21.02
2023-03-15T17:33:35.342Z,20.57
2023-03-15T17:36:07.289Z,20.28
2023-03-15T17:38:40.955Z,19.40
2023-03-15T17:41:21.283Z,19.52
2023-03-15T17:43:51.828Z,19.65
2023-03-15T17:46:28.293Z,19.53
2023-03-15T17:48:59.091Z,19.40
2023-03-15T17:51:31.916Z,19.05
2023-03-15T17:54:01.903Z,18.97
2023-03-15T17:56:31.920Z,19.04
2023-03-15T17:59:01.321Z,18.59
2023-03-15T18:01:35.237Z,18.91
2023-03-15T18:04:04.965Z,18.41
2023-03-15T18:06:34.818Z,18.51
2023-03-15T18:09:04.174Z,18.18
2023-03-15T18:11:36.658Z,18.31
2023-03-15T18:14:07.525Z,18.35
2023-03-15T18:16:38.999Z,18.21
2023-03-15T18:19:08.927Z,17.87
2023-03-15T18:21:38.681Z,17.66
2023-03-15T18:24:08.593Z,17.91
2023-03-15T18:26:38.441Z,17.83
2023-03-15T18:29:08.301Z,17.59
2023-03-15T18:31:39.253Z,17.23
2023-03-15T18:34:09.740Z,17.24
2023-03-15T18:36:39.583Z,16.98
2023-03-15T18:39:09.771Z,16.99
2023-03-15T18:41:39.592Z,17.21
2023-03-15T18:44:10.295Z,16.99
2023-03-15T18:46:43.887Z,17.18
2023-03-15T18:49:13.626Z,16.99
2023-03-15T18:51:43.611Z,16.88
2023-03-15T18:54:13.012Z,16.43
2023-03-15T18:56:43.197Z,16.42
2023-03-15T18:59:12.837Z,16.43
2023-03-15T19:01:44.133Z,16.34
2023-03-15T19:04:13.538Z,15.90
2023-03-15T19:06:43.937Z,15.86
2023-03-15T19:09:13.362Z,15.82
2023-03-15T19:11:43.591Z,15.57
2023-03-15T19:14:13.051Z,15.76
2023-03-15T19:16:44.377Z,15.48
2023-03-15T19:19:13.838Z,15.09
2023-03-15T19:21:43.532Z,15.01
2023-03-15T19:24:13.809Z,14.89
2023-03-15T19:26:44.607Z,15.03
2023-03-15T19:29:44.861Z,15.20
2023-03-15T19:32:15.761Z,14.85
2023-03-15T19:34:45.480Z,15.09
2023-03-15T19:37:15.379Z,14.94
2023-03-15T19:39:45.558Z,14.76
2023-03-15T19:42:15.204Z,14.75
2023-03-15T19:44:47.601Z,14.61
2023-03-15T19:47:18.976Z,14.27
2023-03-15T19:49:48.450Z,14.23
2023-03-15T19:52:18.310Z,14.41
2023-03-15T19:54:48.558Z,14.19
2023-03-15T19:57:18.704Z,14.01
2023-03-15T19:59:48.311Z,13.92
2023-03-15T20:02:19.382Z,13.38
2023-03-15T20:04:49.836Z,13.71
2023-03-15T20:07:23.059Z,13.97
2023-03-15T20:09:53.894Z,14.08
2023-03-15T20:12:23.724Z,13.87
2023-03-15T20:14:53.060Z,13.80
2023-03-15T20:17:25.867Z,14.00
2023-03-15T20:19:55.519Z,13.58
2023-03-15T20:22:26.877Z,13.66
2023-03-15T20:24:56.833Z,13.50
2023-03-15T20:27:26.891Z,13.52
2023-03-15T20:29:58.069Z,13.49
2023-03-15T20:32:29.684Z,13.45
2023-03-15T20:35:00.256Z,13.41
2023-03-15T20:37:31.870Z,13.49
2023-03-15T20:40:03.650Z,13.25
2023-03-15T20:42:33.992Z,13.25
2023-03-15T20:45:07.387Z,13.07
2023-03-15T20:47:39.362Z,13.16
2023-03-15T20:50:10.485Z,13.21
2023-03-15T20:52:41.194Z,13.22
2023-03-15T20:55:11.567Z,13.59
2023-03-15T20:57:42.777Z,13.24
2023-03-15T21:00:19.645Z,13.30
2023-03-15T21:02:51.120Z,13.12
2023-03-15T21:05:20.896Z,13.02
2023-03-15T21:07:50.465Z,13.17
2023-03-15T21:10:20.005Z,13.40
2023-03-15T21:12:49.798Z,13.27
2023-03-15T21:15:19.138Z,13.46
2023-03-15T21:17:51.028Z,13.42
2023-03-15T21:20:20.776Z,13.28
2023-03-15T21:22:51.458Z,13.19
2023-03-15T21:25:21.028Z,13.07
2023-03-15T21:27:51.252Z,13.17
2023-03-15T21:30:20.773Z,13.37
2023-03-15T21:32:52.433Z,13.11
2023-03-15T21:35:22.466Z,13.50
2023-03-15T21:37:52.332Z,13.35
2023-03-15T21:40:22.032Z,13.33
2023-03-15T21:42:51.654Z,13.36
2023-03-15T21:45:23.247Z,12.99
2023-03-15T21:47:54.195Z,13.12
2023-03-15T21:50:24.087Z,13.22
2023-03-15T21:52:53.913Z,13.00
2023-03-15T21:55:23.171Z,13.03
2023-03-15T21:57:52.964Z,12.65
2023-03-15T22:00:24.252Z,12.80
2023-03-15T22:02:55.913Z,13.06
2023-03-15T22:05:25.514Z,12.96
2023-03-15T22:07:54.997Z,12.88
2023-03-15T22:10:24.896Z,13.12
2023-03-15T22:12:55.466Z,13.14
2023-03-15T22:15:25.031Z,12.96
2023-03-15T22:17:56.098Z,13.11
2023-03-15T22:20:25.795Z,12.95
2023-03-15T22:22:55.484Z,13.09
2023-03-15T22:25:24.913Z,13.14
2023-03-15T22:27:54.520Z,12.91
2023-03-15T22:30:24.323Z,12.83
2023-03-15T22:32:55.655Z,13.03
2023-03-15T22:35:25.888Z,12.95
2023-03-15T22:37:57.027Z,12.38
2023-03-15T22:40:27.840Z,12.89
2023-03-15T22:42:58.424Z,12.94
2023-03-15T22:45:27.973Z,13.19
2023-03-15T22:47:58.965Z,12.90
2023-03-15T22:50:28.610Z,12.56
2023-03-15T22:52:58.475Z,13.16
2023-03-15T22:55:28.062Z,12.68
2023-03-15T22:57:57.847Z,12.90
2023-03-15T23:00:27.649Z,13.14
2023-03-15T23:02:59.033Z,12.77
2023-03-15T23:05:28.259Z,12.64
2023-03-15T23:07:57.956Z,12.77
2023-03-15T23:10:27.413Z,12.62
2023-03-15T23:12:57.268Z,12.57
2023-03-15T23:15:27.862Z,12.34
2023-03-15T23:17:58.863Z,12.40
2023-03-15T23:20:28.670Z,12.25
2023-03-15T23:22:58.518Z,12.53
2023-03-15T23:25:29.405Z,12.57
2023-03-15T23:27:59.117Z,12.36
2023-03-15T23:30:35.142Z,12.46
2023-03-15T23:33:08.593Z,12.49
2023-03-15T23:35:37.863Z,12.26
2023-03-15T23:38:08.622Z,12.17
2023-03-15T23:40:38.011Z,12.30
2023-03-15T23:43:09.433Z,12.38
2023-03-15T23:45:38.675Z,12.14
2023-03-15T23:48:09.782Z,12.23
2023-03-15T23:50:40.339Z,12.00
2023-03-15T23:53:09.917Z,12.19
2023-03-15T23:55:39.336Z,12.32
2023-03-15T23:58:08.789Z,12.34
